This is the latest recevied weather packets stored in our database for station/object EB1TR-13. If no packets are shown the sender has not sent any weather packets the latest 10 day(s).
| Time | Temp. | Humidity | Pressure | Rain* | Wind** | Luminosity | Snow |
|---|---|---|---|---|---|---|---|
| 1787824688 | 21.11° C | 75% | 1009 hPa | 0 mm | - | 0 W/m² | - |
| 1787823789 | 21.11° C | 74% | 1009 hPa | 0 mm | - | 0 W/m² | - |
| 1787822888 | 20.56° C | 75% | 1009 hPa | 0 mm | - | 0 W/m² | - |
| 1787821988 | 20.56° C | 75% | 1009 hPa | 0 mm | - | 0 W/m² | - |
| 1787821088 | 19.44° C | 78% | 1009 hPa | 0.76 mm | - | 0 W/m² | - |
| 1787820188 | 18.89° C | 80% | 1009 hPa | 0 mm | - | 0 W/m² | - |
| 1787819288 | 18.33° C | 83% | 1009 hPa | 0 mm | - | 0 W/m² | - |
| 1787818388 | 17.22° C | 85% | 1009 hPa | 0 mm | - | 0 W/m² | - |
| 1787817488 | 16.67° C | 87% | 1009 hPa | 0 mm | - | 0 W/m² | - |
| 1787816588 | 16.11° C | 88% | 1009 hPa | 0 mm | - | 0 W/m² | - |
| 1787815688 | 16.11° C | 90% | 1009 hPa | 0 mm | - | 0 W/m² | - |
| 1787814788 | 15.56° C | 93% | 1009 hPa | 0 mm | - | 0 W/m² | - |
| 1787813888 | 16.11° C | 89% | 1009 hPa | 0 mm | - | 0 W/m² | - |
| 1787812988 | 15.56° C | 89% | 1009 hPa | 0 mm | - | 0 W/m² | - |
| 1787812088 | 15° C | 90% | 1009 hPa | 0 mm | - | 0 W/m² | - |
| 1787811188 | 14.44° C | 95% | 1009 hPa | 0 mm | - | 0 W/m² | - |
| 1787810288 | 14.44° C | 94% | 1009 hPa | 0 mm | - | 0 W/m² | - |
| 1787809388 | 14.44° C | 92% | 1009 hPa | 0 mm | - | 0 W/m² | - |
| 1787808489 | 15° C | 89% | 1009 hPa | 0 mm | - | 0 W/m² | - |
| 1787807588 | 15.56° C | 88% | 1009 hPa | 0 mm | - | 0 W/m² | - |
| 1787806688 | 15.56° C | 88% | 1009 hPa | 0 mm | - | 0 W/m² | - |
| 1787805788 | 16.11° C | 87% | 1009 hPa | 0 mm | - | 0 W/m² | - |
| 1787804889 | 16.11° C | 87% | 1009 hPa | 0 mm | - | 0 W/m² | - |
| 1787803988 | 16.11° C | 87% | 1009 hPa | 0 mm | - | 0 W/m² | - |
| 1787803089 | 16.11° C | 87% | 1009 hPa | 0 mm | - | 0 W/m² | - |
* Rain latest hour (hover to see other rain measurements)
** Current wind speed in m/s (hover to see current wind gust speed)